createdAt,value
2022-12-01T00:01:06.207Z,101535.13
2022-12-01T00:03:33.581Z,101536.75
2022-12-01T00:06:00.914Z,101534.41
2022-12-01T00:08:29.091Z,101534.63
2022-12-01T00:10:56.243Z,101534.59
2022-12-01T00:13:22.858Z,101542.75
2022-12-01T00:15:49.461Z,101538.69
2022-12-01T00:18:18.832Z,101539.56
2022-12-01T00:20:45.416Z,101538.63
2022-12-01T00:23:11.895Z,101528.34
2022-12-01T00:25:38.403Z,101538.41
2022-12-01T00:28:04.839Z,101527.81
2022-12-01T00:30:31.295Z,101526.81
2022-12-01T00:32:57.728Z,101535.13
2022-12-01T00:35:24.191Z,101542.97
2022-12-01T00:37:50.642Z,101536.06
2022-12-01T00:40:17.276Z,101535.25
2022-12-01T00:42:43.713Z,101541.78
2022-12-01T00:45:10.907Z,101544.34
2022-12-01T00:47:37.522Z,101537.91
2022-12-01T00:50:04.264Z,101541.66
2022-12-01T00:52:30.676Z,101541.78
2022-12-01T00:54:57.113Z,101540.66
2022-12-01T00:57:23.531Z,101540.81
2022-12-01T00:59:50.487Z,101547.69
2022-12-01T01:02:17.235Z,101540.06
2022-12-01T01:04:43.938Z,101541.66
2022-12-01T01:07:10.405Z,101537.88
2022-12-01T01:09:37.290Z,101542.28
2022-12-01T01:12:03.874Z,101547.75
2022-12-01T01:14:30.323Z,101546.34
2022-12-01T01:16:56.850Z,101548.88
2022-12-01T01:19:23.975Z,101546.41
2022-12-01T01:21:50.517Z,101551.41
2022-12-01T01:24:17.294Z,101551.66
2022-12-01T01:26:43.760Z,101547.53
2022-12-01T01:29:10.349Z,101552.22
2022-12-01T01:31:36.856Z,101545.94
2022-12-01T01:34:03.817Z,101552.25
2022-12-01T01:36:30.933Z,101552.28
2022-12-01T01:38:57.403Z,101547.53
2022-12-01T01:41:24.725Z,101556.47
2022-12-01T01:43:54.982Z,101544.66
2022-12-01T01:46:24.260Z,101543.09
2022-12-01T01:48:55.134Z,101545.28
2022-12-01T01:51:30.648Z,101549.44
2022-12-01T01:54:04.110Z,101555.56
2022-12-01T01:56:30.938Z,101558.09
2022-12-01T01:58:59.165Z,101554.56
2022-12-01T02:01:25.620Z,101551.75
2022-12-01T02:03:54.403Z,101554.84
2022-12-01T02:06:23.957Z,101551.22
2022-12-01T02:08:50.788Z,101546.56
2022-12-01T02:11:32.834Z,101550.81
2022-12-01T02:14:24.983Z,101540.63
2022-12-01T02:17:13.250Z,101550.69
2022-12-01T02:19:45.804Z,101550.34
2022-12-01T02:22:30.013Z,101549.75
2022-12-01T02:25:41.312Z,101546.28
2022-12-01T02:28:48.168Z,101552.81
2022-12-01T02:31:22.588Z,101552.19
2022-12-01T02:33:53.059Z,101554.78
2022-12-01T02:36:37.963Z,101555.94
2022-12-01T02:42:40.034Z,101562.16
2022-12-01T02:45:11.929Z,101568.16
2022-12-01T02:47:40.994Z,101566.66
2022-12-01T02:50:10.075Z,101564.91
2022-12-01T02:52:38.437Z,101567.84
2022-12-01T02:55:05.194Z,101553.31
2022-12-01T02:57:31.676Z,101555.59
2022-12-01T02:59:59.919Z,101556.38
2022-12-01T03:02:43.846Z,101556.44
2022-12-01T03:05:32.901Z,101556.91
2022-12-01T03:08:05.193Z,101551.41
2022-12-01T03:10:52.138Z,101558.34
2022-12-01T03:13:21.511Z,101549.94
2022-12-01T03:16:04.414Z,101545.63
2022-12-01T03:18:42.345Z,101547.94
2022-12-01T03:21:28.279Z,101551.41
2022-12-01T03:24:08.722Z,101548.25
2022-12-01T03:26:37.441Z,101552.00
2022-12-01T03:29:13.492Z,101552.19
2022-12-01T03:31:45.891Z,101549.00
2022-12-01T03:34:28.301Z,101545.13
2022-12-01T03:37:03.912Z,101544.84
2022-12-01T03:39:33.423Z,101553.34
2022-12-01T03:42:13.415Z,101555.41
2022-12-01T03:44:46.256Z,101558.28
2022-12-01T03:47:17.275Z,101552.34
2022-12-01T03:49:45.660Z,101553.25
2022-12-01T03:52:36.983Z,101551.63
2022-12-01T03:55:22.562Z,101557.44
2022-12-01T03:57:58.277Z,101562.19
2022-12-01T04:00:25.130Z,101557.72
2022-12-01T04:02:56.813Z,101558.75
2022-12-01T04:05:25.437Z,101558.66
2022-12-01T04:07:52.422Z,101565.34
2022-12-01T04:10:19.086Z,101564.13
2022-12-01T04:12:45.620Z,101564.19
2022-12-01T04:15:14.326Z,101564.44
2022-12-01T04:17:45.089Z,101571.53
2022-12-01T04:20:15.881Z,101565.09
2022-12-01T04:22:42.365Z,101568.00
2022-12-01T04:25:09.762Z,101569.09
2022-12-01T04:27:36.720Z,101563.81
2022-12-01T04:30:05.346Z,101558.84
2022-12-01T04:32:31.766Z,101556.50
2022-12-01T04:34:58.211Z,101566.44
2022-12-01T04:37:25.009Z,101568.09
2022-12-01T04:39:51.815Z,101568.53
2022-12-01T04:42:18.475Z,101567.47
2022-12-01T04:44:44.929Z,101559.22
2022-12-01T04:47:11.347Z,101562.28
2022-12-01T04:49:37.819Z,101563.00
2022-12-01T04:52:04.496Z,101570.31
2022-12-01T04:54:30.929Z,101571.94
2022-12-01T04:56:57.387Z,101574.00
2022-12-01T04:59:23.923Z,101576.66
2022-12-01T05:01:50.506Z,101580.44
2022-12-01T05:04:17.011Z,101581.53
2022-12-01T05:06:43.560Z,101572.59
2022-12-01T05:09:17.127Z,101573.31
2022-12-01T05:11:44.740Z,101567.19
2022-12-01T05:14:11.195Z,101579.38
2022-12-01T05:16:37.699Z,101573.19
2022-12-01T05:19:24.898Z,101575.47
2022-12-01T05:21:51.970Z,101580.16
2022-12-01T05:24:19.712Z,101573.97
2022-12-01T05:26:46.231Z,101574.09
2022-12-01T05:29:13.689Z,101574.59
2022-12-01T05:31:40.225Z,101579.84
2022-12-01T05:34:07.522Z,101583.75
2022-12-01T05:36:33.996Z,101575.34
2022-12-01T05:39:00.434Z,101580.81
2022-12-01T05:41:26.899Z,101592.53
2022-12-01T05:43:53.344Z,101585.84
2022-12-01T05:46:19.907Z,101584.66
2022-12-01T05:48:47.197Z,101584.19
2022-12-01T05:51:16.155Z,101587.84
2022-12-01T05:53:43.439Z,101583.88
2022-12-01T05:56:10.042Z,101595.59
2022-12-01T05:58:36.521Z,101580.34
2022-12-01T06:01:03.935Z,101591.44
2022-12-01T06:03:30.521Z,101585.25
2022-12-01T06:05:57.002Z,101585.69
2022-12-01T06:08:23.515Z,101583.94
2022-12-01T06:10:49.995Z,101592.47
2022-12-01T06:13:16.550Z,101593.53
2022-12-01T06:15:43.106Z,101595.91
2022-12-01T06:18:09.548Z,101599.53
2022-12-01T06:20:35.986Z,101601.75
2022-12-01T06:23:02.483Z,101606.56
2022-12-01T06:25:28.945Z,101603.09
2022-12-01T06:27:57.386Z,101606.69
2022-12-01T06:30:24.339Z,101610.47
2022-12-01T06:32:50.818Z,101610.44
2022-12-01T06:35:17.259Z,101607.28
2022-12-01T06:37:43.707Z,101597.81
2022-12-01T06:40:10.942Z,101609.16
2022-12-01T06:42:37.366Z,101610.84
2022-12-01T06:45:04.067Z,101610.97
2022-12-01T06:47:30.800Z,101619.75
2022-12-01T06:49:57.337Z,101623.84
2022-12-01T06:52:23.824Z,101625.50
2022-12-01T06:54:50.281Z,101622.03
2022-12-01T06:57:17.139Z,101625.56
2022-12-01T06:59:43.882Z,101627.16
2022-12-01T07:02:11.493Z,101628.41
2022-12-01T07:04:38.013Z,101629.19
2022-12-01T07:07:05.626Z,101630.03
2022-12-01T07:09:32.073Z,101637.34
2022-12-01T07:11:58.489Z,101629.78
2022-12-01T07:14:26.713Z,101639.16
2022-12-01T07:16:53.427Z,101641.56
2022-12-01T07:19:19.995Z,101638.75
2022-12-01T07:21:46.437Z,101633.94
2022-12-01T07:24:13.171Z,101646.13
2022-12-01T07:26:41.085Z,101640.88
2022-12-01T07:29:09.246Z,101638.28
2022-12-01T07:31:37.057Z,101646.56
2022-12-01T07:34:05.053Z,101643.88
2022-12-01T07:36:31.575Z,101639.09
2022-12-01T07:38:58.099Z,101644.81
2022-12-01T07:41:24.572Z,101640.84
2022-12-01T07:43:51.131Z,101642.91
2022-12-01T07:46:23.052Z,101640.47
2022-12-01T07:48:51.503Z,101651.75
2022-12-01T07:51:18.097Z,101652.97
2022-12-01T07:53:46.433Z,101649.06
2022-12-01T07:56:13.769Z,101650.03
2022-12-01T07:58:40.620Z,101654.75
2022-12-01T08:01:12.741Z,101652.66
2022-12-01T08:03:40.128Z,101658.69
2022-12-01T08:06:07.805Z,101657.78
2022-12-01T08:08:36.050Z,101653.16
2022-12-01T08:11:09.666Z,101653.38
2022-12-01T08:13:36.286Z,101654.34
2022-12-01T08:16:05.231Z,101647.00
2022-12-01T08:18:37.844Z,101655.03
2022-12-01T08:21:05.608Z,101650.44
2022-12-01T08:23:32.100Z,101650.13
2022-12-01T08:26:03.056Z,101657.50
2022-12-01T08:28:29.819Z,101651.31
2022-12-01T08:30:56.606Z,101654.81
2022-12-01T08:33:23.615Z,101651.09
2022-12-01T08:35:50.062Z,101653.28
2022-12-01T08:38:16.908Z,101648.19
2022-12-01T08:40:43.346Z,101655.44
2022-12-01T08:43:15.211Z,101653.25
2022-12-01T08:45:49.453Z,101658.84
2022-12-01T08:48:15.892Z,101655.50
2022-12-01T08:50:42.324Z,101646.59
2022-12-01T08:53:08.755Z,101652.91
2022-12-01T08:55:35.232Z,101656.66
2022-12-01T08:58:01.645Z,101657.16
2022-12-01T09:00:28.761Z,101660.47
2022-12-01T09:02:55.299Z,101657.84
2022-12-01T09:05:21.814Z,101659.44
2022-12-01T09:08:08.302Z,101654.25
2022-12-01T09:10:34.753Z,101663.63
2022-12-01T09:13:01.211Z,101669.50
2022-12-01T09:15:27.657Z,101668.47
2022-12-01T09:17:54.103Z,101667.06
2022-12-01T09:20:20.678Z,101667.22
2022-12-01T09:22:47.136Z,101672.47
2022-12-01T09:25:14.720Z,101666.44
2022-12-01T09:27:41.233Z,101669.38
2022-12-01T09:30:08.309Z,101673.13
2022-12-01T09:32:34.724Z,101673.44
2022-12-01T09:35:01.150Z,101671.06
2022-12-01T09:37:27.581Z,101671.75
2022-12-01T09:39:54.025Z,101665.91
2022-12-01T09:42:32.245Z,101661.22
2022-12-01T09:45:02.681Z,101663.06
2022-12-01T09:47:33.097Z,101654.53
2022-12-01T09:50:23.980Z,101647.75
2022-12-01T09:53:15.417Z,101647.91
2022-12-01T09:55:42.345Z,101650.69
2022-12-01T09:58:18.036Z,101651.94
2022-12-01T10:00:46.922Z,101650.72
2022-12-01T10:03:40.455Z,101644.50
2022-12-01T10:06:27.103Z,101640.03
2022-12-01T10:09:13.102Z,101637.03
2022-12-01T10:11:42.606Z,101637.53
2022-12-01T10:14:19.774Z,101638.41
2022-12-01T10:17:39.700Z,101632.38
2022-12-01T10:20:20.698Z,101630.88
2022-12-01T10:23:02.531Z,101627.38
2022-12-01T10:25:42.224Z,101624.47
2022-12-01T10:28:36.919Z,101629.66
2022-12-01T10:31:34.488Z,101625.53
2022-12-01T10:34:07.872Z,101624.00
2022-12-01T10:36:34.734Z,101630.69
2022-12-01T10:39:04.601Z,101625.78
2022-12-01T10:41:35.631Z,101622.84
2022-12-01T10:44:05.486Z,101626.00
2022-12-01T10:46:52.403Z,101622.53
2022-12-01T10:49:19.806Z,101621.81
2022-12-01T10:52:06.995Z,101615.44
2022-12-01T10:54:36.994Z,101613.00
2022-12-01T10:57:05.300Z,101616.47
2022-12-01T10:59:37.817Z,101626.06
2022-12-01T11:02:14.781Z,101622.16
2022-12-01T11:05:02.705Z,101627.44
2022-12-01T11:07:33.438Z,101624.72
2022-12-01T11:10:14.438Z,101627.34
2022-12-01T11:12:43.036Z,101621.75
2022-12-01T11:15:20.896Z,101626.03
2022-12-01T11:17:47.579Z,101614.94
2022-12-01T11:20:27.994Z,101610.25
2022-12-01T11:23:09.582Z,101607.03
2022-12-01T11:25:36.694Z,101612.31
2022-12-01T11:28:04.440Z,101603.28
2022-12-01T11:30:32.695Z,101608.38
2022-12-01T11:33:02.023Z,101599.50
2022-12-01T11:35:32.080Z,101600.94
2022-12-01T11:40:56.380Z,101594.41
2022-12-01T11:43:30.586Z,101597.75
2022-12-01T11:45:59.641Z,101602.53
2022-12-01T11:48:27.550Z,101596.59
2022-12-01T11:51:07.292Z,101597.81
2022-12-01T11:53:37.326Z,101591.19
2022-12-01T11:56:14.894Z,101591.72
2022-12-01T11:58:43.008Z,101594.41
2022-12-01T12:01:22.186Z,101590.59
2022-12-01T12:03:54.066Z,101595.31
2022-12-01T12:06:42.478Z,101594.09
2022-12-01T12:12:46.818Z,101594.88
2022-12-01T12:15:44.573Z,101594.94
2022-12-01T12:18:25.244Z,101586.72
2022-12-01T12:21:19.662Z,101582.31
2022-12-01T12:24:13.441Z,101575.22
2022-12-01T12:26:50.074Z,101584.25
2022-12-01T12:29:45.570Z,101571.44
2022-12-01T12:32:46.080Z,101580.28
2022-12-01T12:35:36.287Z,101570.41
2022-12-01T12:38:38.256Z,101581.94
2022-12-01T12:41:30.784Z,101584.56
2022-12-01T12:44:22.751Z,101567.69
2022-12-01T12:47:21.601Z,101576.44
2022-12-01T12:50:00.264Z,101574.91
2022-12-01T12:52:33.526Z,101573.13
2022-12-01T12:55:15.413Z,101578.59
2022-12-01T12:58:29.075Z,101573.31
2022-12-01T13:01:03.505Z,101578.41
2022-12-01T13:03:45.287Z,101579.78
2022-12-01T13:06:19.676Z,101577.59
2022-12-01T13:08:53.370Z,101583.78
2022-12-01T13:11:46.088Z,101581.50
2022-12-01T13:14:33.038Z,101574.22
2022-12-01T13:17:15.697Z,101571.31
2022-12-01T13:19:42.833Z,101571.00
2022-12-01T13:22:12.483Z,101569.78
2022-12-01T13:24:39.230Z,101573.16
2022-12-01T13:27:13.068Z,101569.09
2022-12-01T13:29:46.154Z,101566.91
2022-12-01T13:32:36.758Z,101571.19
2022-12-01T13:35:06.450Z,101569.91
2022-12-01T13:37:35.591Z,101569.47
2022-12-01T13:40:22.876Z,101569.59
2022-12-01T13:43:10.637Z,101565.22
2022-12-01T13:45:40.119Z,101576.88
2022-12-01T13:48:47.959Z,101578.34
2022-12-01T13:51:14.825Z,101572.75
2022-12-01T13:54:05.347Z,101583.16
2022-12-01T13:56:46.653Z,101574.53
2022-12-01T13:59:41.192Z,101581.84
2022-12-01T14:02:17.761Z,101582.44
2022-12-01T14:04:44.423Z,101579.25
2022-12-01T14:07:34.112Z,101582.09
2022-12-01T14:10:22.545Z,101566.66
2022-12-01T14:12:50.224Z,101569.72
2022-12-01T14:15:33.728Z,101579.91
2022-12-01T14:18:05.512Z,101570.63
2022-12-01T14:20:37.791Z,101568.41
2022-12-01T14:23:28.928Z,101565.69
2022-12-01T14:26:19.451Z,101561.03
2022-12-01T14:28:55.067Z,101561.59
2022-12-01T14:31:33.729Z,101555.69
2022-12-01T14:34:19.357Z,101554.72
2022-12-01T14:36:56.789Z,101553.13
2022-12-01T14:39:27.064Z,101549.97
2022-12-01T14:41:58.532Z,101552.09
2022-12-01T14:44:44.683Z,101551.09
2022-12-01T14:47:20.867Z,101553.22
2022-12-01T14:49:50.817Z,101551.03
2022-12-01T14:52:39.783Z,101557.09
2022-12-01T14:55:29.530Z,101559.78
2022-12-01T14:58:05.059Z,101552.75
2022-12-01T15:00:36.433Z,101560.19
2022-12-01T15:03:09.646Z,101556.34
2022-12-01T15:05:41.908Z,101558.03
2022-12-01T15:11:21.393Z,101551.06
2022-12-01T15:13:56.247Z,101551.06
2022-12-01T15:16:29.222Z,101545.28
2022-12-01T15:18:56.265Z,101550.84
2022-12-01T15:21:31.822Z,101552.44
2022-12-01T15:24:04.378Z,101549.53
2022-12-01T15:26:32.273Z,101557.38
2022-12-01T15:29:31.222Z,101550.81
2022-12-01T15:32:04.714Z,101550.34
2022-12-01T15:34:35.004Z,101548.72
2022-12-01T15:37:05.343Z,101554.84
2022-12-01T15:40:11.907Z,101550.16
2022-12-01T15:42:43.893Z,101554.31
2022-12-01T15:45:21.261Z,101553.75
2022-12-01T15:47:50.006Z,101560.16
2022-12-01T15:50:30.982Z,101560.88
2022-12-01T15:52:58.647Z,101557.16
2022-12-01T15:55:32.609Z,101569.78
2022-12-01T15:58:00.269Z,101566.47
2022-12-01T16:00:27.048Z,101556.00
2022-12-01T16:02:56.572Z,101567.47
2022-12-01T16:05:29.944Z,101557.53
2022-12-01T16:08:13.502Z,101554.16
2022-12-01T16:10:40.520Z,101550.31
2022-12-01T16:13:35.654Z,101550.94
2022-12-01T16:16:23.068Z,101564.00
2022-12-01T16:18:55.795Z,101546.63
2022-12-01T16:21:22.917Z,101559.69
2022-12-01T16:24:01.095Z,101552.09
2022-12-01T16:26:28.440Z,101558.28
2022-12-01T16:28:55.686Z,101556.13
2022-12-01T16:31:22.635Z,101563.00
2022-12-01T16:34:00.316Z,101563.19
2022-12-01T16:36:27.155Z,101555.72
2022-12-01T16:38:53.637Z,101561.13
2022-12-01T16:41:36.383Z,101560.16
2022-12-01T16:44:27.590Z,101559.31
2022-12-01T16:46:52.574Z,101556.28
2022-12-01T16:49:19.038Z,101555.72
2022-12-01T16:52:11.114Z,101553.50
2022-12-01T16:54:31.940Z,101556.66
2022-12-01T16:56:58.371Z,101555.72
2022-12-01T16:59:25.261Z,101555.09
2022-12-01T17:01:51.747Z,101559.84
2022-12-01T17:04:18.344Z,101566.09
2022-12-01T17:06:44.784Z,101557.88
2022-12-01T17:09:11.263Z,101559.88
2022-12-01T17:11:37.699Z,101564.28
2022-12-01T17:14:04.211Z,101559.16
2022-12-01T17:16:30.735Z,101566.56
2022-12-01T17:18:57.247Z,101564.25
2022-12-01T17:21:23.740Z,101573.75
2022-12-01T17:23:50.174Z,101563.81
2022-12-01T17:26:18.989Z,101559.09
2022-12-01T17:28:46.728Z,101566.50
2022-12-01T17:31:13.850Z,101561.13
2022-12-01T17:33:41.062Z,101562.66
2022-12-01T17:36:11.265Z,101556.09
2022-12-01T17:38:39.331Z,101564.78
2022-12-01T17:41:09.101Z,101559.69
2022-12-01T17:43:37.389Z,101557.72
2022-12-01T17:46:05.701Z,101568.50
2022-12-01T17:48:40.828Z,101559.84
2022-12-01T17:51:08.887Z,101564.97
2022-12-01T17:53:36.086Z,101564.41
2022-12-01T17:56:02.704Z,101564.97
2022-12-01T17:58:30.201Z,101569.56
2022-12-01T18:00:56.633Z,101563.28
2022-12-01T18:03:23.127Z,101566.81
2022-12-01T18:05:57.147Z,101570.44
2022-12-01T18:08:25.692Z,101566.25
2022-12-01T18:10:52.915Z,101561.94
2022-12-01T18:13:21.455Z,101556.38
2022-12-01T18:15:48.810Z,101572.41
2022-12-01T18:18:15.518Z,101570.97
2022-12-01T18:20:43.645Z,101563.50
2022-12-01T18:23:11.142Z,101566.16
2022-12-01T18:25:38.946Z,101564.88
2022-12-01T18:28:06.136Z,101560.53
2022-12-01T18:30:33.612Z,101560.84
2022-12-01T18:33:01.001Z,101570.63
2022-12-01T18:35:31.803Z,101570.34
2022-12-01T18:37:58.699Z,101571.31
2022-12-01T18:40:26.019Z,101565.44
2022-12-01T18:42:52.443Z,101565.09
2022-12-01T18:45:21.499Z,101569.63
2022-12-01T18:47:48.144Z,101568.81
2022-12-01T18:50:14.937Z,101567.41
2022-12-01T18:52:41.556Z,101554.31
2022-12-01T18:55:08.757Z,101557.13
2022-12-01T18:57:35.554Z,101554.22
2022-12-01T19:00:04.673Z,101561.78
2022-12-01T19:02:31.211Z,101559.91
2022-12-01T19:04:57.750Z,101559.75
2022-12-01T19:07:29.530Z,101554.84
2022-12-01T19:09:56.339Z,101552.41
2022-12-01T19:12:24.411Z,101550.53
2022-12-01T19:14:52.949Z,101558.34
2022-12-01T19:17:19.947Z,101559.53
2022-12-01T19:19:47.368Z,101556.00
2022-12-01T19:22:14.023Z,101555.06
2022-12-01T19:24:40.477Z,101554.44
2022-12-01T19:27:07.124Z,101552.00
2022-12-01T19:29:33.672Z,101547.41
2022-12-01T19:32:00.614Z,101545.84
2022-12-01T19:34:27.491Z,101547.81
2022-12-01T19:36:56.804Z,101549.63
2022-12-01T19:39:23.973Z,101541.50
2022-12-01T19:41:51.965Z,101545.19
2022-12-01T19:44:18.665Z,101544.53
2022-12-01T19:46:45.402Z,101543.16
2022-12-01T19:49:11.874Z,101542.81
2022-12-01T19:51:39.523Z,101543.13
2022-12-01T19:54:15.421Z,101538.34
2022-12-01T19:56:42.669Z,101533.63
2022-12-01T19:59:11.209Z,101537.78
2022-12-01T20:01:38.011Z,101535.81
2022-12-01T20:04:04.625Z,101531.41
2022-12-01T20:06:33.340Z,101533.16
2022-12-01T20:09:02.021Z,101542.16
2022-12-01T20:11:29.848Z,101536.66
2022-12-01T20:13:56.693Z,101535.31
2022-12-01T20:16:24.584Z,101538.28
2022-12-01T20:18:52.210Z,101540.41
2022-12-01T20:21:24.208Z,101540.72
2022-12-01T20:24:04.566Z,101539.78
2022-12-01T20:26:37.298Z,101529.88
2022-12-01T20:29:08.195Z,101532.13
2022-12-01T20:31:35.344Z,101534.22
2022-12-01T20:34:04.947Z,101528.69
2022-12-01T20:36:31.521Z,101529.94
2022-12-01T20:38:58.031Z,101529.00
2022-12-01T20:41:24.471Z,101524.47
2022-12-01T20:43:50.927Z,101524.72
2022-12-01T20:46:17.473Z,101526.84
2022-12-01T20:48:44.072Z,101526.75
2022-12-01T20:51:13.939Z,101532.66
2022-12-01T20:53:42.436Z,101526.94
2022-12-01T20:56:17.190Z,101526.13
2022-12-01T20:58:43.717Z,101519.28
2022-12-01T21:01:12.657Z,101510.66
2022-12-01T21:03:41.977Z,101515.88
2022-12-01T21:06:09.961Z,101513.59
2022-12-01T21:08:41.638Z,101516.00
2022-12-01T21:11:48.021Z,101511.47
2022-12-01T21:14:35.174Z,101516.28
2022-12-01T21:17:11.080Z,101506.94
2022-12-01T21:19:53.315Z,101512.97
2022-12-01T21:22:20.129Z,101512.28
2022-12-01T21:24:51.062Z,101505.41
2022-12-01T21:27:18.204Z,101510.75
2022-12-01T21:29:47.617Z,101517.78
2022-12-01T21:32:26.939Z,101517.84
2022-12-01T21:34:55.529Z,101520.84
2022-12-01T21:37:24.582Z,101515.78
2022-12-01T21:39:52.928Z,101522.34
2022-12-01T21:42:22.146Z,101516.06
2022-12-01T21:44:49.205Z,101509.75
2022-12-01T21:47:20.257Z,101510.41
2022-12-01T21:49:50.594Z,101503.97
2022-12-01T21:52:20.142Z,101511.44
2022-12-01T21:54:47.062Z,101511.16
2022-12-01T21:57:47.309Z,101512.38
2022-12-01T22:00:25.663Z,101509.25
2022-12-01T22:03:30.943Z,101511.47
2022-12-01T22:06:29.907Z,101507.66
2022-12-01T22:09:11.588Z,101506.56
2022-12-01T22:11:38.050Z,101502.91
2022-12-01T22:14:21.831Z,101501.50
2022-12-01T22:16:56.225Z,101492.13
2022-12-01T22:19:27.657Z,101501.28
2022-12-01T22:22:09.319Z,101498.19
2022-12-01T22:24:49.574Z,101504.34
2022-12-01T22:27:26.922Z,101489.63
2022-12-01T22:30:19.478Z,101488.56
2022-12-01T22:33:05.460Z,101492.50
2022-12-01T22:35:44.978Z,101490.16
2022-12-01T22:38:20.765Z,101495.44
2022-12-01T22:41:26.600Z,101494.25
2022-12-01T22:44:00.467Z,101495.44
2022-12-01T22:46:33.782Z,101487.88
2022-12-01T22:49:08.046Z,101488.44
2022-12-01T22:51:56.875Z,101493.84
2022-12-01T22:54:34.823Z,101487.13
2022-12-01T22:57:14.801Z,101489.44
2022-12-01T22:59:44.617Z,101482.03
2022-12-01T23:02:23.473Z,101472.91
2022-12-01T23:04:55.753Z,101471.97
2022-12-01T23:07:36.820Z,101468.88
2022-12-01T23:10:17.044Z,101466.16
2022-12-01T23:12:45.233Z,101473.84
2022-12-01T23:15:27.255Z,101464.06
2022-12-01T23:17:53.873Z,101469.28
2022-12-01T23:20:20.268Z,101465.44
2022-12-01T23:22:47.499Z,101461.28
2022-12-01T23:25:18.155Z,101457.63
2022-12-01T23:27:51.045Z,101456.94
2022-12-01T23:30:19.357Z,101460.75
2022-12-01T23:32:55.699Z,101450.41
2022-12-01T23:35:22.138Z,101448.66
2022-12-01T23:37:48.602Z,101455.81
2022-12-01T23:40:20.516Z,101440.84
2022-12-01T23:42:47.470Z,101446.66
2022-12-01T23:45:19.293Z,101442.78
2022-12-01T23:47:46.028Z,101445.69
2022-12-01T23:50:24.694Z,101440.75
2022-12-01T23:52:51.762Z,101447.00
2022-12-01T23:55:23.047Z,101446.03
2022-12-01T23:57:49.987Z,101441.16
